createdAt,value
2018-03-19T00:00:47.122Z,30.05
2018-03-19T00:03:14.808Z,29.00
2018-03-19T00:05:42.356Z,30.40
2018-03-19T00:08:09.960Z,33.55
2018-03-19T00:10:37.499Z,29.77
2018-03-19T00:13:05.116Z,29.52
2018-03-19T00:15:32.665Z,36.88
2018-03-19T00:18:00.257Z,34.53
2018-03-19T00:20:27.804Z,28.33
2018-03-19T00:22:55.394Z,33.90
2018-03-19T00:25:22.931Z,37.83
2018-03-19T00:27:50.557Z,33.03
2018-03-19T00:30:18.862Z,31.00
2018-03-19T00:32:46.476Z,30.73
2018-03-19T00:35:14.784Z,31.92
2018-03-19T00:37:42.380Z,29.67
2018-03-19T00:40:09.929Z,32.65
2018-03-19T00:42:37.464Z,32.88
2018-03-19T00:45:05.058Z,33.85
2018-03-19T00:47:32.616Z,29.02
2018-03-19T00:50:00.213Z,24.90
2018-03-19T00:52:28.516Z,33.30
2018-03-19T00:54:56.114Z,33.38
2018-03-19T00:57:23.673Z,28.48
2018-03-19T00:59:51.251Z,35.20
2018-03-19T01:02:18.790Z,30.50
2018-03-19T01:04:46.364Z,33.40
2018-03-19T01:07:13.951Z,26.48
2018-03-19T01:09:42.251Z,31.23
2018-03-19T01:12:09.850Z,28.05
2018-03-19T01:14:37.392Z,32.28
2018-03-19T01:17:04.930Z,29.58
2018-03-19T01:19:32.529Z,27.90
2018-03-19T01:22:00.072Z,45.78
2018-03-19T01:24:27.664Z,30.05
2018-03-19T01:26:55.204Z,33.90
2018-03-19T01:29:22.789Z,33.63
2018-03-19T01:31:50.332Z,35.35
2018-03-19T01:34:17.941Z,49.05
2018-03-19T01:36:46.243Z,29.08
2018-03-19T01:39:13.819Z,32.30
2018-03-19T01:41:41.369Z,32.80
2018-03-19T01:44:08.973Z,32.40
2018-03-19T01:46:36.508Z,40.30
2018-03-19T01:49:04.091Z,29.33
2018-03-19T01:51:31.638Z,30.15
2018-03-19T01:53:59.224Z,35.63
2018-03-19T01:56:27.543Z,28.30
2018-03-19T01:58:55.136Z,34.05
2018-03-19T02:01:22.689Z,32.85
2018-03-19T02:03:50.269Z,28.70
2018-03-19T02:06:17.812Z,38.53
2018-03-19T02:08:45.399Z,35.00
2018-03-19T02:11:13.714Z,32.33
2018-03-19T02:13:41.325Z,33.83
2018-03-19T02:16:08.870Z,32.45
2018-03-19T02:18:36.466Z,32.28
2018-03-19T02:21:04.773Z,31.52
2018-03-19T02:23:32.364Z,32.67
2018-03-19T02:25:59.903Z,26.45
2018-03-19T02:28:27.488Z,26.05
2018-03-19T02:30:55.024Z,30.15
2018-03-19T02:33:22.614Z,32.55
2018-03-19T02:35:50.157Z,28.85
2018-03-19T02:38:17.737Z,34.55
2018-03-19T02:40:45.284Z,29.87
2018-03-19T02:43:12.870Z,32.15
2018-03-19T02:45:41.187Z,31.67
2018-03-19T02:48:08.772Z,29.85
2018-03-19T02:50:36.317Z,31.60
2018-03-19T02:53:03.911Z,28.20
2018-03-19T02:55:31.468Z,26.67
2018-03-19T02:57:59.061Z,29.67
2018-03-19T03:00:27.374Z,39.50
2018-03-19T03:02:54.968Z,31.05
2018-03-19T03:05:22.515Z,30.00
2018-03-19T03:07:50.113Z,33.58
2018-03-19T03:10:18.423Z,32.97
2018-03-19T03:12:46.021Z,34.78
2018-03-19T03:15:13.566Z,36.20
2018-03-19T03:17:41.161Z,28.98
2018-03-19T03:20:09.477Z,32.50
2018-03-19T03:22:37.077Z,33.95
2018-03-19T03:25:04.624Z,31.42
2018-03-19T03:27:32.221Z,36.90
2018-03-19T03:30:00.529Z,33.47
2018-03-19T03:32:28.124Z,31.40
2018-03-19T03:34:55.665Z,35.85
2018-03-19T03:37:23.262Z,27.83
2018-03-19T03:39:50.804Z,29.87
2018-03-19T03:42:18.399Z,30.52
2018-03-19T03:44:46.714Z,28.87
2018-03-19T03:47:14.309Z,28.30
2018-03-19T03:49:41.872Z,34.72
2018-03-19T03:52:09.458Z,33.33
2018-03-19T03:54:37.767Z,29.80
2018-03-19T03:57:05.366Z,30.98
2018-03-19T03:59:32.895Z,28.67
2018-03-19T04:02:00.491Z,31.30
2018-03-19T04:04:28.032Z,30.48
2018-03-19T04:06:55.624Z,29.73
2018-03-19T04:09:23.166Z,34.47
2018-03-19T04:11:52.258Z,31.42
2018-03-19T04:14:19.799Z,30.27
2018-03-19T04:16:47.408Z,44.97
2018-03-19T04:19:15.711Z,29.77
2018-03-19T04:21:43.303Z,26.08
2018-03-19T04:24:10.860Z,25.37
2018-03-19T04:26:38.444Z,32.28
2018-03-19T04:29:05.981Z,21.98
2018-03-19T04:31:33.576Z,29.73
2018-03-19T04:34:01.116Z,33.17
2018-03-19T04:36:28.699Z,25.70
2018-03-19T04:38:56.302Z,33.08
2018-03-19T04:41:23.847Z,33.47
2018-03-19T04:43:51.451Z,26.60
2018-03-19T04:46:19.000Z,30.45
2018-03-19T04:48:46.587Z,26.77
2018-03-19T04:51:14.218Z,23.35
2018-03-19T04:53:41.763Z,30.88
2018-03-19T04:56:09.357Z,24.25
2018-03-19T04:58:36.901Z,28.52
2018-03-19T05:03:53.810Z,24.92
2018-03-19T05:06:21.348Z,27.40
2018-03-19T05:08:49.652Z,28.12
2018-03-19T05:11:17.251Z,27.75
2018-03-19T05:13:45.581Z,29.23
2018-03-19T05:16:13.172Z,24.65
2018-03-19T05:18:40.708Z,29.17
2018-03-19T05:21:08.297Z,33.88
2018-03-19T05:23:35.861Z,34.85
2018-03-19T05:26:03.448Z,26.58
2018-03-19T05:28:31.761Z,30.33
2018-03-19T05:30:59.431Z,26.37
2018-03-19T05:33:26.970Z,26.10
2018-03-19T05:35:54.575Z,28.55
2018-03-19T05:38:22.120Z,32.10
2018-03-19T05:40:49.707Z,29.95
2018-03-19T05:43:17.247Z,31.33
2018-03-19T05:45:44.843Z,31.30
2018-03-19T05:48:13.167Z,26.73
2018-03-19T05:50:40.764Z,26.73
2018-03-19T05:53:08.295Z,30.55
2018-03-19T05:55:35.884Z,38.78
2018-03-19T05:58:03.426Z,24.40
2018-03-19T06:00:31.004Z,26.33
2018-03-19T06:02:58.546Z,41.15
2018-03-19T06:05:26.185Z,29.70
2018-03-19T06:07:53.731Z,32.00
2018-03-19T06:10:21.329Z,27.60
2018-03-19T06:12:48.872Z,30.40
2018-03-19T06:15:16.467Z,29.50
2018-03-19T06:17:44.004Z,30.92
2018-03-19T06:20:11.583Z,25.77
2018-03-19T06:22:39.121Z,31.95
2018-03-19T06:25:06.712Z,26.40
2018-03-19T06:27:35.055Z,26.95
2018-03-19T06:30:02.641Z,33.55
2018-03-19T06:32:30.178Z,31.05
2018-03-19T06:34:57.764Z,28.77
2018-03-19T06:37:25.300Z,28.58
2018-03-19T06:39:52.888Z,27.17
2018-03-19T06:42:20.433Z,29.80
2018-03-19T06:44:48.032Z,28.25
2018-03-19T06:47:15.622Z,25.65
2018-03-19T06:49:43.202Z,26.62
2018-03-19T06:52:10.744Z,25.80
2018-03-19T06:54:38.331Z,28.38
2018-03-19T06:57:05.874Z,25.48
2018-03-19T06:59:33.464Z,26.00
2018-03-19T07:02:00.995Z,30.17
2018-03-19T07:04:28.582Z,28.90
2018-03-19T07:06:56.132Z,32.58
2018-03-19T07:09:23.714Z,32.58
2018-03-19T07:11:52.016Z,28.62
2018-03-19T07:14:19.606Z,27.33
2018-03-19T07:16:47.143Z,26.62
2018-03-19T07:19:14.791Z,30.00
2018-03-19T07:21:42.358Z,26.95
2018-03-19T07:24:09.960Z,31.25
2018-03-19T07:26:37.495Z,25.37
2018-03-19T07:29:05.091Z,32.55
2018-03-19T07:31:32.629Z,25.12
2018-03-19T07:34:00.215Z,27.48
2018-03-19T07:36:27.745Z,26.67
2018-03-19T07:38:55.330Z,24.65
2018-03-19T07:41:22.863Z,28.58
2018-03-19T07:43:50.452Z,35.63
2018-03-19T07:46:18.062Z,26.98
2018-03-19T07:48:45.709Z,31.65
2018-03-19T07:51:13.272Z,30.52
2018-03-19T07:53:40.866Z,31.67
2018-03-19T07:56:08.432Z,26.90
2018-03-19T07:58:36.030Z,29.25
2018-03-19T08:01:04.331Z,27.58
2018-03-19T08:03:31.925Z,33.17
2018-03-19T08:05:59.470Z,29.63
2018-03-19T08:08:27.058Z,29.23
2018-03-19T08:10:54.600Z,26.10
2018-03-19T08:13:22.176Z,32.95
2018-03-19T08:15:49.720Z,31.75
2018-03-19T08:18:17.301Z,29.58
2018-03-19T08:20:44.838Z,31.02
2018-03-19T08:23:12.439Z,30.17
2018-03-19T08:25:40.762Z,33.33
2018-03-19T08:28:08.364Z,29.67
2018-03-19T08:30:35.922Z,29.55
2018-03-19T08:33:03.529Z,31.85
2018-03-19T08:35:31.072Z,25.40
2018-03-19T08:37:59.415Z,30.83
2018-03-19T08:40:26.952Z,30.15
2018-03-19T08:42:54.618Z,30.88
2018-03-19T08:45:22.172Z,35.50
2018-03-19T08:47:49.761Z,34.72
2018-03-19T08:50:17.311Z,33.30
2018-03-19T08:52:44.906Z,27.42
2018-03-19T08:55:13.217Z,29.48
2018-03-19T08:57:40.810Z,37.00
2018-03-19T09:00:08.350Z,34.35
2018-03-19T09:02:35.932Z,31.52
2018-03-19T09:05:03.476Z,30.67
2018-03-19T09:07:31.072Z,28.80
2018-03-19T09:09:58.610Z,29.02
2018-03-19T09:12:26.196Z,30.20
2018-03-19T09:14:54.500Z,27.73
2018-03-19T09:17:22.088Z,31.50
2018-03-19T09:19:49.641Z,28.35
2018-03-19T09:22:17.233Z,31.62
2018-03-19T09:24:44.780Z,26.42
2018-03-19T09:27:12.396Z,26.58
2018-03-19T09:29:39.949Z,31.58
2018-03-19T09:32:08.311Z,33.40
2018-03-19T09:34:36.628Z,29.83
2018-03-19T09:37:04.224Z,28.52
2018-03-19T09:39:31.764Z,32.33
2018-03-19T09:41:59.357Z,35.85
2018-03-19T09:44:27.115Z,36.10
2018-03-19T09:46:54.699Z,37.50
2018-03-19T09:49:22.584Z,31.40
2018-03-19T09:51:50.364Z,32.17
2018-03-19T09:54:18.050Z,31.87
2018-03-19T09:56:45.754Z,29.10
2018-03-19T09:59:14.148Z,27.30
2018-03-19T10:01:42.895Z,35.53
2018-03-19T10:04:10.492Z,33.88
2018-03-19T10:06:38.966Z,34.90
2018-03-19T10:09:07.407Z,29.35
2018-03-19T10:11:34.996Z,31.00
2018-03-19T10:14:03.427Z,29.10
2018-03-19T10:16:31.205Z,36.63
2018-03-19T10:18:58.747Z,34.63
2018-03-19T10:21:26.336Z,38.90
2018-03-19T10:23:53.884Z,30.02
2018-03-19T10:26:21.480Z,29.23
2018-03-19T10:28:49.800Z,35.08
2018-03-19T10:31:17.383Z,33.13
2018-03-19T10:33:44.923Z,31.00
2018-03-19T10:36:12.513Z,35.17
2018-03-19T10:38:40.066Z,29.23
2018-03-19T10:41:07.669Z,32.67
2018-03-19T10:43:35.964Z,32.88
2018-03-19T10:46:03.556Z,39.20
2018-03-19T10:48:31.100Z,33.75
2018-03-19T10:50:58.680Z,38.63
2018-03-19T10:53:26.226Z,38.95
2018-03-19T10:55:53.808Z,38.80
2018-03-19T10:58:21.354Z,41.60
2018-03-19T11:00:48.947Z,35.58
2018-03-19T11:03:22.295Z,33.88
2018-03-19T11:05:49.876Z,35.38
2018-03-19T11:08:23.139Z,33.63
2018-03-19T11:10:51.119Z,38.47
2018-03-19T11:13:18.900Z,34.20
2018-03-19T11:15:46.753Z,38.78
2018-03-19T11:18:14.682Z,33.60
2018-03-19T11:20:42.390Z,35.53
2018-03-19T11:23:09.948Z,32.90
2018-03-19T11:25:37.563Z,40.42
2018-03-19T11:28:05.873Z,37.75
2018-03-19T11:30:33.534Z,36.72
2018-03-19T11:33:01.109Z,33.05
2018-03-19T11:35:28.763Z,38.45
2018-03-19T11:37:56.352Z,37.28
2018-03-19T11:40:23.940Z,36.85
2018-03-19T11:42:52.269Z,41.47
2018-03-19T11:45:19.865Z,44.05
2018-03-19T11:47:47.402Z,49.08
2018-03-19T11:50:15.041Z,42.30
2018-03-19T11:52:42.598Z,43.53
2018-03-19T11:55:10.217Z,36.60
2018-03-19T11:57:38.529Z,36.83
2018-03-19T12:00:06.210Z,36.47
2018-03-19T12:02:33.754Z,32.28
2018-03-19T12:05:01.335Z,36.20
2018-03-19T12:07:28.925Z,38.55
2018-03-19T12:09:56.602Z,39.22
2018-03-19T12:12:25.023Z,37.60
2018-03-19T12:14:52.627Z,33.03
2018-03-19T12:17:20.198Z,41.83
2018-03-19T12:19:47.809Z,39.00
2018-03-19T12:22:15.352Z,42.30
2018-03-19T12:24:42.942Z,34.17
2018-03-19T12:27:11.411Z,39.67
2018-03-19T12:29:39.012Z,39.25
2018-03-19T12:32:06.575Z,38.13
2018-03-19T12:34:34.947Z,30.83
2018-03-19T12:37:02.492Z,33.88
2018-03-19T12:45:41.845Z,36.28
2018-03-19T12:48:09.382Z,38.13
2018-03-19T12:50:36.965Z,36.83
2018-03-19T12:53:04.500Z,32.92
2018-03-19T12:55:32.096Z,35.88
2018-03-19T12:57:59.681Z,29.95
2018-03-19T13:00:27.227Z,32.85
2018-03-19T13:02:54.842Z,33.60
2018-03-19T13:05:22.591Z,35.97
2018-03-19T13:07:50.149Z,32.33
2018-03-19T13:10:17.770Z,27.45
2018-03-19T13:12:45.316Z,32.95
2018-03-19T13:15:12.944Z,30.83
2018-03-19T13:17:40.492Z,30.92
2018-03-19T13:20:08.095Z,27.42
2018-03-19T13:22:35.682Z,31.40
2018-03-19T13:25:03.423Z,29.85
2018-03-19T13:27:31.910Z,34.95
2018-03-19T13:29:59.515Z,36.28
2018-03-19T13:32:28.068Z,28.20
2018-03-19T13:34:55.671Z,31.77
2018-03-19T13:37:23.279Z,33.25
2018-03-19T13:39:50.912Z,29.87
2018-03-19T13:42:18.586Z,32.08
2018-03-19T13:44:46.249Z,37.50
2018-03-19T13:47:13.905Z,28.17
2018-03-19T13:49:41.597Z,29.17
2018-03-19T13:52:09.171Z,34.80
2018-03-19T13:54:36.763Z,30.80
2018-03-19T13:57:04.363Z,30.70
2018-03-19T13:59:32.106Z,37.45
2018-03-19T14:01:59.770Z,35.20
2018-03-19T14:04:27.380Z,31.17
2018-03-19T14:06:54.926Z,35.58
2018-03-19T14:09:23.449Z,31.55
2018-03-19T14:11:51.155Z,27.30
2018-03-19T14:14:19.105Z,29.58
2018-03-19T14:16:46.869Z,27.37
2018-03-19T14:19:14.533Z,31.50
2018-03-19T14:21:42.251Z,33.47
2018-03-19T14:24:10.611Z,31.05
2018-03-19T14:26:38.161Z,32.70
2018-03-19T14:29:05.801Z,27.13
2018-03-19T14:31:33.444Z,35.75
2018-03-19T14:34:01.069Z,30.60
2018-03-19T14:36:29.496Z,27.62
2018-03-19T14:38:57.088Z,33.17
2018-03-19T14:41:24.692Z,30.92
2018-03-19T14:43:52.387Z,30.25
2018-03-19T14:46:19.954Z,30.00
2018-03-19T14:48:47.555Z,33.65
2018-03-19T14:51:15.871Z,33.72
2018-03-19T14:53:43.468Z,28.05
2018-03-19T14:56:11.015Z,30.52
2018-03-19T14:58:38.612Z,32.35
2018-03-19T15:01:06.927Z,33.17
2018-03-19T15:03:34.527Z,31.25
2018-03-19T15:06:02.092Z,35.53
2018-03-19T15:08:29.685Z,29.95
2018-03-19T15:10:57.245Z,32.88
2018-03-19T15:13:24.838Z,32.22
2018-03-19T15:15:52.631Z,34.83
2018-03-19T15:18:20.237Z,27.00
2018-03-19T15:20:47.804Z,30.75
2018-03-19T15:23:15.410Z,38.30
2018-03-19T15:25:42.958Z,30.23
2018-03-19T15:28:10.551Z,30.95
2018-03-19T15:30:38.094Z,28.23
2018-03-19T15:33:05.676Z,30.25
2018-03-19T15:35:33.984Z,32.08
2018-03-19T15:38:01.644Z,29.10
2018-03-19T15:40:29.261Z,29.02
2018-03-19T15:42:56.885Z,27.30
2018-03-19T15:45:24.435Z,35.15
2018-03-19T15:47:52.079Z,32.35
2018-03-19T15:50:19.625Z,32.65
2018-03-19T15:52:47.974Z,31.65
2018-03-19T15:55:15.516Z,29.35
2018-03-19T15:57:43.067Z,31.05
2018-03-19T16:00:10.672Z,29.85
2018-03-19T16:02:39.102Z,25.27
2018-03-19T16:05:06.727Z,33.88
2018-03-19T16:07:35.094Z,30.23
2018-03-19T16:10:03.454Z,27.55
2018-03-19T16:12:31.840Z,28.30
2018-03-19T16:14:59.420Z,26.30
2018-03-19T16:17:27.799Z,35.38
2018-03-19T16:19:56.111Z,28.92
2018-03-19T16:22:23.662Z,28.67
2018-03-19T16:24:51.255Z,32.60
2018-03-19T16:27:18.871Z,30.12
2018-03-19T16:29:46.414Z,26.83
2018-03-19T16:32:14.724Z,32.97
2018-03-19T16:34:42.316Z,28.15
2018-03-19T16:37:09.868Z,25.42
2018-03-19T16:39:38.221Z,28.00
2018-03-19T16:42:05.766Z,29.73
2018-03-19T16:44:33.365Z,30.02
2018-03-19T16:47:00.938Z,31.52
2018-03-19T16:49:28.528Z,29.40
2018-03-19T16:51:56.836Z,33.13
2018-03-19T16:54:24.436Z,29.12
2018-03-19T16:56:51.990Z,31.87
2018-03-19T16:59:19.584Z,29.58
2018-03-19T17:01:47.147Z,25.98
2018-03-19T17:04:15.505Z,26.98
2018-03-19T17:06:43.046Z,34.63
2018-03-19T17:09:10.642Z,30.52
2018-03-19T17:11:39.015Z,36.75
2018-03-19T17:14:06.576Z,31.45
2018-03-19T17:16:35.009Z,33.47
2018-03-19T17:19:02.565Z,37.58
2018-03-19T17:21:30.160Z,36.22
2018-03-19T17:23:57.704Z,39.22
2018-03-19T17:26:25.306Z,33.17
2018-03-19T17:28:53.612Z,36.58
2018-03-19T17:31:21.296Z,32.88
2018-03-19T17:33:48.857Z,31.00
2018-03-19T17:36:16.469Z,36.72
2018-03-19T17:38:44.792Z,36.40
2018-03-19T17:41:12.379Z,30.65
2018-03-19T17:43:39.919Z,28.67
2018-03-19T17:46:07.514Z,44.40
2018-03-19T17:48:35.821Z,32.95
2018-03-19T17:51:03.413Z,33.60
2018-03-19T17:53:30.952Z,33.95
2018-03-19T17:55:58.537Z,34.00
2018-03-19T17:58:26.078Z,33.70
2018-03-19T18:00:53.673Z,33.40
2018-03-19T18:03:21.209Z,38.97
2018-03-19T18:05:48.824Z,28.98
2018-03-19T18:08:17.136Z,36.92
2018-03-19T18:10:44.731Z,31.45
2018-03-19T18:13:12.266Z,47.78
2018-03-19T18:15:39.847Z,36.00
2018-03-19T18:18:07.387Z,30.23
2018-03-19T18:20:35.039Z,32.20
2018-03-19T18:23:02.570Z,35.70
2018-03-19T18:25:30.157Z,35.20
2018-03-19T18:27:57.720Z,36.08
2018-03-19T18:30:25.324Z,39.53
2018-03-19T18:32:52.869Z,36.60
2018-03-19T18:35:20.470Z,32.70
2018-03-19T18:37:48.020Z,37.95
2018-03-19T18:40:16.391Z,30.80
2018-03-19T18:42:44.712Z,33.42
2018-03-19T18:45:12.318Z,38.60
2018-03-19T18:47:41.406Z,37.65
2018-03-19T18:50:09.019Z,32.38
2018-03-19T18:52:36.553Z,35.55
2018-03-19T18:55:04.904Z,37.67
2018-03-19T18:57:32.455Z,40.78
2018-03-19T19:00:00.046Z,36.83
2018-03-19T19:02:28.475Z,36.60
2018-03-19T19:04:56.085Z,33.63
2018-03-19T19:07:24.401Z,31.92
2018-03-19T19:09:52.004Z,34.95
2018-03-19T19:12:19.542Z,40.38
2018-03-19T19:14:47.139Z,38.42
2018-03-19T19:17:15.451Z,42.10
2018-03-19T19:19:43.049Z,32.28
2018-03-19T19:22:10.594Z,38.85
2018-03-19T19:24:38.180Z,34.30
2018-03-19T19:27:05.735Z,36.22
2018-03-19T19:29:34.120Z,38.65
2018-03-19T19:32:01.663Z,36.03
2018-03-19T19:34:29.256Z,39.78
2018-03-19T19:36:57.573Z,55.33
2018-03-19T19:39:25.233Z,52.38
2018-03-19T19:41:52.768Z,44.90
2018-03-19T19:44:20.363Z,44.42
2018-03-19T19:46:47.951Z,38.95
2018-03-19T19:49:15.497Z,39.88
2018-03-19T19:51:43.089Z,41.80
2018-03-19T19:54:10.629Z,41.75
2018-03-19T19:56:38.219Z,42.62
2018-03-19T19:59:06.537Z,40.88
2018-03-19T20:01:34.130Z,43.22
2018-03-19T20:04:01.758Z,44.03
2018-03-19T20:06:29.344Z,38.85
2018-03-19T20:08:56.881Z,36.95
2018-03-19T20:11:24.470Z,43.50
2018-03-19T20:13:52.012Z,43.08
2018-03-19T20:16:19.608Z,39.40
2018-03-19T20:18:47.148Z,44.15
2018-03-19T20:21:14.740Z,41.45
2018-03-19T20:23:43.044Z,42.50
2018-03-19T20:26:10.653Z,39.90
2018-03-19T20:28:38.206Z,41.92
2018-03-19T20:31:05.748Z,42.17
2018-03-19T20:33:33.343Z,46.17
2018-03-19T20:36:00.885Z,40.58
2018-03-19T20:38:28.515Z,48.97
2018-03-19T20:40:56.100Z,39.78
2018-03-19T20:43:23.665Z,50.15
2018-03-19T20:45:51.251Z,44.95
2018-03-19T20:48:19.570Z,43.67
2018-03-19T20:50:47.126Z,50.45
2018-03-19T20:53:14.775Z,42.75
2018-03-19T20:55:42.326Z,49.17
2018-03-19T20:58:09.922Z,40.17
2018-03-19T21:00:37.472Z,38.13
2018-03-19T21:03:05.123Z,39.13
2018-03-19T21:05:32.676Z,37.95
2018-03-19T21:08:00.277Z,36.60
2018-03-19T21:10:27.820Z,37.00
2018-03-19T21:12:55.405Z,44.65
2018-03-19T21:15:22.952Z,40.67
2018-03-19T21:17:50.540Z,39.72
2018-03-19T21:20:18.085Z,45.25
2018-03-19T21:22:45.680Z,38.85
2018-03-19T21:25:13.998Z,37.00
2018-03-19T21:27:41.659Z,35.42
2018-03-19T21:30:09.201Z,38.83
2018-03-19T21:32:36.817Z,48.40
2018-03-19T21:35:05.140Z,41.30
2018-03-19T21:37:32.729Z,39.47
2018-03-19T21:40:00.506Z,46.28
2018-03-19T21:42:28.112Z,44.20
2018-03-19T21:44:55.696Z,42.00
2018-03-19T21:47:23.284Z,39.83
2018-03-19T21:49:50.824Z,43.15
2018-03-19T21:52:18.417Z,44.40
2018-03-19T21:54:45.955Z,49.45
2018-03-19T21:57:13.532Z,46.22
2018-03-19T21:59:41.074Z,43.92
2018-03-19T22:02:08.818Z,41.70
2018-03-19T22:04:36.398Z,42.33
2018-03-19T22:07:03.983Z,41.40
2018-03-19T22:09:32.299Z,41.45
2018-03-19T22:11:59.895Z,43.92
2018-03-19T22:14:27.450Z,43.90
2018-03-19T22:16:55.027Z,51.40
2018-03-19T22:19:22.562Z,40.53
2018-03-19T22:21:50.160Z,46.60
2018-03-19T22:24:17.696Z,48.80
2018-03-19T22:26:45.541Z,42.88
2018-03-19T22:29:13.089Z,48.30
2018-03-19T22:31:40.705Z,43.00
2018-03-19T22:34:08.251Z,44.60
2018-03-19T22:36:35.841Z,37.75
2018-03-19T22:39:04.154Z,39.28
2018-03-19T22:41:31.701Z,39.42
2018-03-19T22:43:59.297Z,36.90
2018-03-19T22:46:26.840Z,38.15
2018-03-19T22:48:54.433Z,36.78
2018-03-19T22:51:21.971Z,36.38
2018-03-19T22:53:49.550Z,38.35
2018-03-19T22:56:17.093Z,35.08
2018-03-19T22:58:44.684Z,43.60
2018-03-19T23:01:12.229Z,37.35
2018-03-19T23:03:39.823Z,38.67
2018-03-19T23:06:08.148Z,42.58
2018-03-19T23:08:35.734Z,39.72
2018-03-19T23:11:03.279Z,39.72
2018-03-19T23:13:30.880Z,55.15
2018-03-19T23:15:59.198Z,44.35
2018-03-19T23:18:26.786Z,45.80
2018-03-19T23:20:55.845Z,41.25
2018-03-19T23:23:23.431Z,45.95
2018-03-19T23:25:50.977Z,43.50
2018-03-19T23:28:18.563Z,43.00
2018-03-19T23:30:46.102Z,39.35
2018-03-19T23:33:13.682Z,41.67
2018-03-19T23:35:41.219Z,49.88
2018-03-19T23:38:08.808Z,39.97
2018-03-19T23:40:36.348Z,44.83
2018-03-19T23:43:03.964Z,43.67
2018-03-19T23:45:31.515Z,42.78
2018-03-19T23:47:59.115Z,48.10
2018-03-19T23:50:26.653Z,47.22
2018-03-19T23:52:54.249Z,46.25
2018-03-19T23:55:21.816Z,47.95
2018-03-19T23:57:49.404Z,49.67
